PHF weather

Newport News Williamsburg International Airport
Newport News, Virginia, United States

Public forecast

Using degrees Fahrenheit for public forecast. Weather courtesy of forecast.io.

METAR (pilot weather report)

Retrieved 2019/04/20 03:54 UTC (15 minutes ago):

KPHF 200354Z AUTO 18012G19KT 10SM -RA BKN110 20/18 A2965 RMK AO2 RAB51 SLP040 P0000 T02000178

TAF (pilot weather forecast)

Retrieved 2019/04/20 00:00 UTC (4 hours ago):

TAF KPHF 192358Z 2000/2024 17017G27KT 4SM TSRA BR OVC030CB FM200400 17016G24KT 4SM SHRA VCTS OVC020CB FM200600 18015G23KT 5SM SHRA OVC015 FM200900 19013G20KT P6SM -SHRA BKN040 FM201200 20013G21KT P6SM SCT250 FM202000 19015G24KT P6SM BKN080